Time;durP1;ratioP1;P1;durP2;ratioP2;P2;SDS_P1;SDS_P2;PMS_P1;PMS_P2;Temp;Humidity;BMP_temperature;BMP_pressure;BME280_temperature;BME280_humidity;BME280_pressure;Samples;Min_cycle;Max_cycle;Signal;HPM_P1;HPM_P2
2021/08/21 00:01:50;;;;;;;6.03;2.60;;;;;;;;;;5006874;28;20040;-60
2021/08/21 00:04:16;;;;;;;4.13;2.38;;;;;;;;;;5009703;28;20071;-60
2021/08/21 00:06:42;;;;;;;3.78;2.70;;;;;;;;;;5012459;28;20018;-59
2021/08/21 00:09:08;;;;;;;5.40;2.85;;;;;;;;;;5010781;28;20375;-59
2021/08/21 00:11:34;;;;;;;4.70;2.65;;;;;;;;;;5011362;28;20041;-59
2021/08/21 00:14:01;;;;;;;4.32;2.67;;;;;;;;;;5011958;28;20084;-60
2021/08/21 00:16:27;;;;;;;5.25;3.60;;;;;;;;;;5011975;28;20136;-59
2021/08/21 00:18:53;;;;;;;4.93;2.78;;;;;;;;;;5010991;28;20030;-58
2021/08/21 00:21:19;;;;;;;5.07;3.40;;;;;;;;;;5007579;28;20038;-59
2021/08/21 00:23:45;;;;;;;4.80;3.20;;;;;;;;;;5011862;28;20517;-60
2021/08/21 00:26:11;;;;;;;3.63;2.78;;;;;;;;;;5016319;28;20029;-59
2021/08/21 00:28:37;;;;;;;6.10;3.25;;;;;;;;;;5017579;28;20026;-60
2021/08/21 00:31:03;;;;;;;4.82;2.75;;;;;;;;;;5018003;28;20377;-58
2021/08/21 00:33:29;;;;;;;6.88;3.38;;;;;;;;;;5018097;28;20168;-60
2021/08/21 00:35:55;;;;;;;6.15;3.15;;;;;;;;;;5015879;28;20097;-60
2021/08/21 00:38:21;;;;;;;5.22;3.22;;;;;;;;;;5015925;28;20038;-59
2021/08/21 00:40:48;;;;;;;8.70;3.70;;;;;;;;;;5013235;28;20032;-59
2021/08/21 00:43:15;;;;;;;5.40;2.90;;;;;;;;;;5014184;28;20049;-60
2021/08/21 00:45:41;;;;;;;5.93;3.42;;;;;;;;;;5013966;28;20030;-60
2021/08/21 00:48:07;;;;;;;6.68;3.72;;;;;;;;;;5011379;28;20037;-59
2021/08/21 00:50:33;;;;;;;5.70;3.67;;;;;;;;;;5011142;28;20053;-58
2021/08/21 00:52:59;;;;;;;5.75;3.35;;;;;;;;;;5011675;28;20041;-58
2021/08/21 00:55:25;;;;;;;5.47;3.20;;;;;;;;;;5018082;28;20037;-59
2021/08/21 00:57:51;;;;;;;4.75;2.60;;;;;;;;;;5014964;28;20083;-59
2021/08/21 01:00:17;;;;;;;4.30;3.00;;;;;;;;;;5013183;28;20030;-57
2021/08/21 01:02:45;;;;;;;4.75;2.97;;;;;;;;;;5014429;28;20040;-58
2021/08/21 01:05:14;;;;;;;4.97;2.92;;;;;;;;;;5016092;28;20576;-59
2021/08/21 01:07:40;;;;;;;7.72;3.85;;;;;;;;;;5017612;28;20200;-59
2021/08/21 01:10:07;;;;;;;6.57;3.35;;;;;;;;;;5015888;28;20129;-57
2021/08/21 01:12:34;;;;;;;5.80;2.95;;;;;;;;;;5017120;28;20044;-59
2021/08/21 01:15:00;;;;;;;4.90;3.10;;;;;;;;;;5011939;28;20029;-57
2021/08/21 01:17:26;;;;;;;4.97;3.00;;;;;;;;;;5013110;28;20023;-57
2021/08/21 01:19:52;;;;;;;5.85;3.28;;;;;;;;;;5013345;28;20104;-56
2021/08/21 01:22:22;;;;;;;5.15;3.10;;;;;;;;;;5017133;28;20018;-60
2021/08/21 01:24:53;;;;;;;5.90;3.55;;;;;;;;;;5017692;28;20037;-60
2021/08/21 01:27:21;;;;;;;5.57;3.08;;;;;;;;;;5031954;28;20084;-59
2021/08/21 01:29:47;;;;;;;5.68;3.22;;;;;;;;;;5012366;28;20036;-59
2021/08/21 01:32:13;;;;;;;4.22;3.17;;;;;;;;;;5007006;28;20485;-60
2021/08/21 01:34:39;;;;;;;4.85;3.08;;;;;;;;;;5008938;28;20466;-59
2021/08/21 01:37:06;;;;;;;4.65;2.97;;;;;;;;;;5013733;28;20088;-58
2021/08/21 01:39:32;;;;;;;6.15;3.33;;;;;;;;;;5013577;28;20084;-59
2021/08/21 01:41:58;;;;;;;5.40;2.97;;;;;;;;;;5011180;28;20030;-59
2021/08/21 01:44:24;;;;;;;4.63;2.95;;;;;;;;;;5011355;28;20030;-59
2021/08/21 01:46:50;;;;;;;5.10;3.08;;;;;;;;;;5014068;28;20080;-58
2021/08/21 01:49:18;;;;;;;6.93;3.67;;;;;;;;;;5008079;28;21274;-59
2021/08/21 01:51:45;;;;;;;4.60;3.00;;;;;;;;;;5011520;28;20026;-59
2021/08/21 01:54:15;;;;;;;6.40;3.30;;;;;;;;;;5012656;28;20026;-58
2021/08/21 01:56:46;;;;;;;5.65;3.13;;;;;;;;;;5008189;28;20038;-57
2021/08/21 01:59:25;;;;;;;4.15;3.00;;;;;;;;;;5014288;28;20091;-59
2021/08/21 02:01:52;;;;;;;7.05;3.70;;;;;;;;;;5011166;28;20440;-59
2021/08/21 02:04:18;;;;;;;4.20;3.10;;;;;;;;;;5007097;28;20129;-59
2021/08/21 02:06:44;;;;;;;10.13;3.47;;;;;;;;;;5008749;28;20034;-58
2021/08/21 02:09:11;;;;;;;3.97;2.80;;;;;;;;;;5004355;28;20425;-59
2021/08/21 02:11:37;;;;;;;7.53;3.25;;;;;;;;;;5012370;28;20095;-59
2021/08/21 02:14:03;;;;;;;5.20;3.08;;;;;;;;;;5011103;28;20512;-59
2021/08/21 02:16:29;;;;;;;5.05;2.97;;;;;;;;;;5011998;28;20076;-59
2021/08/21 02:18:55;;;;;;;4.75;3.33;;;;;;;;;;5013848;28;20048;-59
2021/08/21 02:21:22;;;;;;;4.78;3.28;;;;;;;;;;5004769;28;20466;-60
2021/08/21 02:23:49;;;;;;;5.63;3.53;;;;;;;;;;5013351;28;20441;-60
2021/08/21 02:26:14;;;;;;;4.75;2.63;;;;;;;;;;5008095;28;20093;-60
2021/08/21 02:28:40;;;;;;;7.57;3.13;;;;;;;;;;5008307;28;20034;-60
2021/08/21 02:31:06;;;;;;;6.57;3.22;;;;;;;;;;5006119;28;20034;-60
2021/08/21 02:33:33;;;;;;;6.95;3.45;;;;;;;;;;5006801;28;20038;-59
2021/08/21 02:36:00;;;;;;;4.07;2.88;;;;;;;;;;5005987;28;20038;-60
2021/08/21 02:38:26;;;;;;;4.68;2.97;;;;;;;;;;5002699;28;20026;-60
2021/08/21 02:40:52;;;;;;;6.15;3.33;;;;;;;;;;5009171;28;20030;-58
2021/08/21 02:43:18;;;;;;;5.75;3.35;;;;;;;;;;5006695;28;20030;-59
2021/08/21 02:45:44;;;;;;;4.40;2.63;;;;;;;;;;5009381;28;20033;-59
2021/08/21 02:48:10;;;;;;;6.05;3.45;;;;;;;;;;5005387;28;20976;-58
2021/08/21 02:50:36;;;;;;;5.47;3.30;;;;;;;;;;5005351;28;20030;-59
2021/08/21 02:53:02;;;;;;;5.57;3.35;;;;;;;;;;5009122;28;20061;-58
2021/08/21 02:55:28;;;;;;;5.53;3.13;;;;;;;;;;5012235;28;20108;-58
2021/08/21 02:57:54;;;;;;;5.38;3.28;;;;;;;;;;5011921;28;20029;-58
2021/08/21 03:00:20;;;;;;;5.93;3.28;;;;;;;;;;5011192;28;20033;-60
2021/08/21 03:02:46;;;;;;;5.85;3.45;;;;;;;;;;5003706;28;20041;-58
2021/08/21 03:05:12;;;;;;;5.38;2.97;;;;;;;;;;5012337;28;20038;-59
2021/08/21 03:07:38;;;;;;;5.53;3.20;;;;;;;;;;5002407;28;20022;-60
2021/08/21 03:10:05;;;;;;;6.38;3.13;;;;;;;;;;5008674;28;20123;-58
2021/08/21 03:12:31;;;;;;;4.45;3.08;;;;;;;;;;5010168;28;20057;-59
2021/08/21 03:14:58;;;;;;;7.72;4.10;;;;;;;;;;5011286;28;20036;-59
2021/08/21 03:17:24;;;;;;;6.45;3.80;;;;;;;;;;5012533;28;20101;-59
2021/08/21 03:19:49;;;;;;;5.30;3.13;;;;;;;;;;5004959;28;20941;-59
2021/08/21 03:22:15;;;;;;;5.05;3.33;;;;;;;;;;5012877;28;20029;-59
2021/08/21 03:24:41;;;;;;;6.10;3.30;;;;;;;;;;5011853;28;20076;-60
2021/08/21 03:27:07;;;;;;;5.40;3.42;;;;;;;;;;5009580;28;20030;-58
2021/08/21 03:29:33;;;;;;;6.90;2.95;;;;;;;;;;5009226;28;20110;-59
2021/08/21 03:32:00;;;;;;;5.38;3.20;;;;;;;;;;5012272;28;20018;-59
2021/08/21 03:34:26;;;;;;;7.10;3.85;;;;;;;;;;5011647;28;20509;-59
2021/08/21 03:36:52;;;;;;;6.72;3.38;;;;;;;;;;5012118;28;20038;-60
2021/08/21 03:39:18;;;;;;;5.93;3.38;;;;;;;;;;5004880;28;20121;-59
2021/08/21 03:41:44;;;;;;;5.43;3.00;;;;;;;;;;5012352;28;20046;-57
2021/08/21 03:44:10;;;;;;;5.47;3.40;;;;;;;;;;5011577;28;20034;-59
2021/08/21 03:46:36;;;;;;;5.90;3.30;;;;;;;;;;5010732;28;20033;-60
2021/08/21 03:49:02;;;;;;;6.00;3.13;;;;;;;;;;5011729;28;20528;-59
2021/08/21 03:51:28;;;;;;;5.68;3.08;;;;;;;;;;5011624;28;20097;-59
2021/08/21 03:53:55;;;;;;;6.85;3.97;;;;;;;;;;5012657;28;20105;-60
2021/08/21 03:56:21;;;;;;;6.35;3.45;;;;;;;;;;5009804;28;20044;-60
2021/08/21 03:58:47;;;;;;;4.32;2.90;;;;;;;;;;5010324;28;20373;-59
2021/08/21 04:01:13;;;;;;;5.63;3.38;;;;;;;;;;5008456;28;20597;-59
2021/08/21 04:03:39;;;;;;;4.05;2.90;;;;;;;;;;5005931;28;20030;-57
2021/08/21 04:06:08;;;;;;;5.18;2.88;;;;;;;;;;5003387;28;20026;-58
2021/08/21 04:08:34;;;;;;;4.43;3.03;;;;;;;;;;5009288;28;20085;-60
2021/08/21 04:11:00;;;;;;;6.63;3.17;;;;;;;;;;5010972;28;20410;-59
2021/08/21 04:13:28;;;;;;;4.85;2.75;;;;;;;;;;5010911;28;20105;-59
2021/08/21 04:15:54;;;;;;;4.82;3.00;;;;;;;;;;5004744;28;20080;-59
2021/08/21 04:18:20;;;;;;;4.90;2.92;;;;;;;;;;5007339;28;20026;-61
2021/08/21 04:20:46;;;;;;;5.18;2.95;;;;;;;;;;5002917;28;20022;-61
2021/08/21 04:23:12;;;;;;;7.75;3.50;;;;;;;;;;5010239;28;20022;-61
2021/08/21 04:25:38;;;;;;;4.78;2.67;;;;;;;;;;5004903;28;20034;-61
2021/08/21 04:28:04;;;;;;;5.07;3.17;;;;;;;;;;5008728;28;20428;-61
2021/08/21 04:30:30;;;;;;;4.25;3.03;;;;;;;;;;5009574;28;20032;-61
2021/08/21 04:32:56;;;;;;;5.07;3.13;;;;;;;;;;5010468;28;20053;-61
2021/08/21 04:35:22;;;;;;;5.10;2.88;;;;;;;;;;5003701;28;20442;-61
2021/08/21 04:37:48;;;;;;;5.05;3.00;;;;;;;;;;5002867;28;20117;-61
2021/08/21 04:40:16;;;;;;;5.60;3.60;;;;;;;;;;5001308;28;20573;-61
2021/08/21 04:42:42;;;;;;;4.57;3.00;;;;;;;;;;4995131;28;20105;-61
2021/08/21 04:45:08;;;;;;;6.07;3.50;;;;;;;;;;5001011;28;20476;-61
2021/08/21 04:47:35;;;;;;;4.22;2.95;;;;;;;;;;5010326;28;20022;-61
2021/08/21 04:50:03;;;;;;;3.95;2.33;;;;;;;;;;5003255;28;20375;-61
2021/08/21 04:52:29;;;;;;;5.80;3.00;;;;;;;;;;5001736;28;20053;-61
2021/08/21 04:54:55;;;;;;;5.50;3.15;;;;;;;;;;5009192;28;20482;-61
2021/08/21 04:57:21;;;;;;;4.65;2.88;;;;;;;;;;5008475;28;20030;-61
2021/08/21 04:59:47;;;;;;;3.40;2.70;;;;;;;;;;5010849;28;20045;-61
2021/08/21 05:02:13;;;;;;;8.80;2.90;;;;;;;;;;5004029;28;20370;-61
2021/08/21 05:04:39;;;;;;;4.43;2.67;;;;;;;;;;5007892;28;20041;-61
2021/08/21 05:07:05;;;;;;;4.57;2.25;;;;;;;;;;5006954;28;20033;-61
2021/08/21 05:09:31;;;;;;;3.65;2.25;;;;;;;;;;5006440;28;20074;-61
2021/08/21 05:11:57;;;;;;;4.63;2.53;;;;;;;;;;5010215;28;20022;-61
2021/08/21 05:14:23;;;;;;;4.63;2.67;;;;;;;;;;5007541;28;20104;-61
2021/08/21 05:16:50;;;;;;;4.53;2.83;;;;;;;;;;5012054;28;20030;-61
2021/08/21 05:19:51;;;;;;;3.75;2.55;;;;;;;;;;5012807;28;20554;-61
2021/08/21 05:22:46;;;;;;;4.53;2.80;;;;;;;;;;5006965;28;20038;-61
2021/08/21 05:24:55;;;;;;;4.47;3.15;;;;;;;;;;5006099;28;20042;-61
2021/08/21 05:27:22;;;;;;;5.10;3.28;;;;;;;;;;5006716;28;20028;-61
2021/08/21 05:29:49;;;;;;;3.65;2.60;;;;;;;;;;5010048;28;20129;-61
2021/08/21 05:32:15;;;;;;;4.43;2.50;;;;;;;;;;5009276;28;20355;-61
2021/08/21 05:34:41;;;;;;;7.85;3.35;;;;;;;;;;5012663;28;20061;-61
2021/08/21 05:37:07;;;;;;;4.53;2.92;;;;;;;;;;5011448;28;20018;-61
2021/08/21 05:39:33;;;;;;;4.32;2.95;;;;;;;;;;5009985;28;20037;-61
2021/08/21 05:41:59;;;;;;;4.72;2.95;;;;;;;;;;5012364;28;20033;-61
2021/08/21 05:44:25;;;;;;;4.35;3.00;;;;;;;;;;5012728;28;20040;-60
2021/08/21 05:46:51;;;;;;;5.78;3.03;;;;;;;;;;5007483;28;20535;-61
2021/08/21 05:49:18;;;;;;;4.88;3.05;;;;;;;;;;5012678;28;20104;-61
2021/08/21 05:51:44;;;;;;;10.18;2.33;;;;;;;;;;5011675;28;20023;-61
2021/08/21 05:54:10;;;;;;;4.05;2.55;;;;;;;;;;5009821;28;20037;-61
2021/08/21 05:56:36;;;;;;;2.75;1.95;;;;;;;;;;5009248;28;20105;-61
2021/08/21 05:59:02;;;;;;;3.67;2.10;;;;;;;;;;5012819;28;20525;-61
2021/08/21 06:01:28;;;;;;;5.57;2.58;;;;;;;;;;5011765;28;20116;-61
2021/08/21 06:03:54;;;;;;;3.58;2.50;;;;;;;;;;5004655;28;20026;-61
2021/08/21 06:06:20;;;;;;;3.42;2.20;;;;;;;;;;5009945;28;20019;-61
2021/08/21 06:08:46;;;;;;;3.83;2.40;;;;;;;;;;5013984;28;20466;-61
2021/08/21 06:11:12;;;;;;;4.80;2.97;;;;;;;;;;5013290;28;20049;-61
2021/08/21 06:13:40;;;;;;;2.92;2.17;;;;;;;;;;5011705;28;20053;-61
2021/08/21 06:16:05;;;;;;;5.18;3.10;;;;;;;;;;5010451;28;20033;-61
2021/08/21 06:18:32;;;;;;;7.95;3.50;;;;;;;;;;5012888;28;20039;-61
2021/08/21 06:20:58;;;;;;;6.07;3.55;;;;;;;;;;5014239;28;20065;-61
2021/08/21 06:23:24;;;;;;;4.75;3.08;;;;;;;;;;5010627;28;20378;-61
2021/08/21 06:25:50;;;;;;;4.65;2.88;;;;;;;;;;5016899;28;20039;-61
2021/08/21 06:28:16;;;;;;;5.10;3.10;;;;;;;;;;5008677;28;20065;-61
2021/08/21 06:30:43;;;;;;;6.28;3.47;;;;;;;;;;5007401;28;20026;-61
2021/08/21 06:33:09;;;;;;;6.43;3.70;;;;;;;;;;5010839;28;20529;-61
2021/08/21 06:35:35;;;;;;;4.82;3.22;;;;;;;;;;5009833;28;20109;-61
2021/08/21 06:38:01;;;;;;;5.47;2.70;;;;;;;;;;5010571;28;20025;-61
2021/08/21 06:40:27;;;;;;;5.60;2.80;;;;;;;;;;5011707;28;20034;-61
2021/08/21 06:42:53;;;;;;;4.55;2.90;;;;;;;;;;5003597;28;20187;-61
2021/08/21 06:45:19;;;;;;;4.57;2.72;;;;;;;;;;5011471;28;20072;-61
2021/08/21 06:47:45;;;;;;;4.63;2.83;;;;;;;;;;5009098;28;20041;-61
2021/08/21 06:50:11;;;;;;;5.45;3.17;;;;;;;;;;5005590;28;20037;-61
2021/08/21 06:52:37;;;;;;;5.18;2.95;;;;;;;;;;5010467;28;20022;-61
2021/08/21 06:55:03;;;;;;;4.53;2.60;;;;;;;;;;5004510;28;20030;-60
2021/08/21 06:57:29;;;;;;;3.90;2.55;;;;;;;;;;5001172;28;20044;-61
2021/08/21 06:59:57;;;;;;;4.50;2.58;;;;;;;;;;5005004;28;20026;-60
2021/08/21 07:02:23;;;;;;;4.80;2.92;;;;;;;;;;5003157;28;20080;-61
2021/08/21 07:04:49;;;;;;;5.50;2.65;;;;;;;;;;5013214;28;20037;-61
2021/08/21 07:07:15;;;;;;;4.32;2.83;;;;;;;;;;5003148;28;20412;-61
2021/08/21 07:09:41;;;;;;;5.45;3.10;;;;;;;;;;5004286;28;20054;-61
2021/08/21 07:12:07;;;;;;;3.50;2.42;;;;;;;;;;5006652;28;20058;-61
2021/08/21 07:14:33;;;;;;;4.63;2.95;;;;;;;;;;5012340;28;20037;-60
2021/08/21 07:16:59;;;;;;;3.70;2.40;;;;;;;;;;5009839;28;20038;-61
2021/08/21 07:19:25;;;;;;;5.68;3.05;;;;;;;;;;5011628;28;20482;-60
2021/08/21 07:21:53;;;;;;;5.30;2.60;;;;;;;;;;5010024;28;20042;-60
2021/08/21 07:24:20;;;;;;;4.75;2.33;;;;;;;;;;5009027;28;20034;-60
2021/08/21 07:26:46;;;;;;;3.45;1.88;;;;;;;;;;5003129;28;20149;-60
2021/08/21 07:29:12;;;;;;;4.75;2.72;;;;;;;;;;5024775;28;20403;-60
2021/08/21 07:31:38;;;;;;;3.90;1.95;;;;;;;;;;5008072;28;20026;-60
2021/08/21 07:34:04;;;;;;;2.70;1.85;;;;;;;;;;5010657;28;20534;-60
2021/08/21 07:36:29;;;;;;;2.40;1.98;;;;;;;;;;5009861;28;20370;-60
2021/08/21 07:38:55;;;;;;;3.38;2.08;;;;;;;;;;5008429;28;20030;-60
2021/08/21 07:41:22;;;;;;;2.80;1.65;;;;;;;;;;5009836;28;20053;-60
2021/08/21 07:43:48;;;;;;;4.55;2.47;;;;;;;;;;5009912;28;20119;-60
2021/08/21 07:46:14;;;;;;;4.22;1.88;;;;;;;;;;5004850;28;20110;-60
2021/08/21 07:48:40;;;;;;;2.58;1.70;;;;;;;;;;5004295;28;20026;-60
2021/08/21 07:51:06;;;;;;;2.92;1.50;;;;;;;;;;5008812;28;20093;-60
2021/08/21 07:53:32;;;;;;;2.08;1.42;;;;;;;;;;5005624;28;20034;-59
2021/08/21 07:55:58;;;;;;;2.00;1.40;;;;;;;;;;5006542;28;20026;-60
2021/08/21 07:58:24;;;;;;;3.00;1.83;;;;;;;;;;5009383;28;20033;-60
2021/08/21 08:00:50;;;;;;;2.22;1.52;;;;;;;;;;5011083;28;20029;-60
2021/08/21 08:03:16;;;;;;;2.85;1.45;;;;;;;;;;5009373;28;20034;-60
2021/08/21 08:05:43;;;;;;;3.38;1.83;;;;;;;;;;5009406;28;20521;-60
2021/08/21 08:08:09;;;;;;;2.33;1.55;;;;;;;;;;5006252;28;20021;-60
2021/08/21 08:10:35;;;;;;;3.25;1.63;;;;;;;;;;5009216;28;20096;-60
2021/08/21 08:13:01;;;;;;;5.55;2.22;;;;;;;;;;5005824;28;20073;-59
2021/08/21 08:15:27;;;;;;;3.38;1.88;;;;;;;;;;5009833;28;20057;-60
2021/08/21 08:17:53;;;;;;;3.33;1.83;;;;;;;;;;5000477;28;20635;-60
2021/08/21 08:20:19;;;;;;;5.45;2.33;;;;;;;;;;5003503;28;20483;-58
2021/08/21 08:22:45;;;;;;;2.47;1.60;;;;;;;;;;5008229;28;20515;-59
2021/08/21 08:25:11;;;;;;;4.43;2.28;;;;;;;;;;5005270;28;20125;-60
2021/08/21 08:27:37;;;;;;;3.35;1.65;;;;;;;;;;5010200;28;20478;-58
2021/08/21 08:30:04;;;;;;;2.72;1.77;;;;;;;;;;5009178;28;20022;-59
2021/08/21 08:32:30;;;;;;;4.00;2.55;;;;;;;;;;5006896;28;20030;-58
2021/08/21 08:34:56;;;;;;;3.70;1.95;;;;;;;;;;5007358;28;20045;-59
2021/08/21 08:37:22;;;;;;;3.22;2.00;;;;;;;;;;5008467;28;20463;-58
2021/08/21 08:39:48;;;;;;;3.42;2.28;;;;;;;;;;5011383;28;20040;-56
2021/08/21 08:42:15;;;;;;;4.80;2.08;;;;;;;;;;5012166;28;20026;-59
2021/08/21 08:44:46;;;;;;;4.30;2.08;;;;;;;;;;5011562;28;20034;-59
2021/08/21 08:47:13;;;;;;;4.43;2.03;;;;;;;;;;5007452;28;20082;-59
2021/08/21 08:49:40;;;;;;;3.25;1.73;;;;;;;;;;5013344;28;20482;-59
2021/08/21 08:52:06;;;;;;;4.20;2.00;;;;;;;;;;5015081;28;20057;-59
2021/08/21 08:54:32;;;;;;;3.13;1.70;;;;;;;;;;5012700;28;20021;-57
2021/08/21 08:56:58;;;;;;;3.45;2.00;;;;;;;;;;5015692;28;20033;-58
2021/08/21 08:59:24;;;;;;;3.95;2.22;;;;;;;;;;5012688;28;20058;-59
2021/08/21 09:01:51;;;;;;;2.75;2.00;;;;;;;;;;5014932;28;20401;-59
2021/08/21 09:04:19;;;;;;;4.70;2.15;;;;;;;;;;5013541;28;20464;-58
2021/08/21 09:06:45;;;;;;;4.13;1.77;;;;;;;;;;5015221;28;20485;-58
2021/08/21 09:09:13;;;;;;;2.15;1.33;;;;;;;;;;5008064;28;20026;-57
2021/08/21 09:11:49;;;;;;;2.22;1.33;;;;;;;;;;5013528;28;20033;-59
2021/08/21 09:14:15;;;;;;;1.70;1.00;;;;;;;;;;5015329;28;20076;-56
2021/08/21 09:16:42;;;;;;;2.47;1.48;;;;;;;;;;5014585;28;20100;-58
2021/08/21 09:19:07;;;;;;;2.70;1.70;;;;;;;;;;5014664;28;20087;-58
2021/08/21 09:21:34;;;;;;;2.22;1.52;;;;;;;;;;5005349;28;20455;-56
2021/08/21 09:24:00;;;;;;;2.65;1.48;;;;;;;;;;5013873;28;20034;-60
2021/08/21 09:26:36;;;;;;;4.18;1.77;;;;;;;;;;5013074;28;20026;-54
2021/08/21 09:29:03;;;;;;;2.63;1.45;;;;;;;;;;5013934;28;20037;-59
2021/08/21 09:31:31;;;;;;;3.17;1.42;;;;;;;;;;5005791;28;20104;-57
2021/08/21 09:33:59;;;;;;;3.30;1.40;;;;;;;;;;5015089;28;20474;-57
2021/08/21 09:36:29;;;;;;;11.68;1.60;;;;;;;;;;5014473;28;20030;-57
2021/08/21 09:38:55;;;;;;;2.20;1.50;;;;;;;;;;5014513;28;20034;-59
2021/08/21 09:41:21;;;;;;;2.55;1.80;;;;;;;;;;5007251;28;20116;-56
2021/08/21 09:43:47;;;;;;;1.77;1.10;;;;;;;;;;5013400;28;20022;-58
2021/08/21 09:46:15;;;;;;;4.35;1.60;;;;;;;;;;5011472;28;20026;-59
2021/08/21 09:49:00;;;;;;;2.80;1.60;;;;;;;;;;5010135;28;20490;-58
2021/08/21 09:51:30;;;;;;;2.85;1.50;;;;;;;;;;5014194;28;20088;-59
2021/08/21 09:54:00;;;;;;;3.20;1.45;;;;;;;;;;5027493;28;20030;-59
2021/08/21 09:56:30;;;;;;;2.13;1.23;;;;;;;;;;5011808;28;20033;-59
2021/08/21 09:58:56;;;;;;;2.42;1.27;;;;;;;;;;5004608;28;20030;-59
2021/08/21 10:01:22;;;;;;;2.70;1.50;;;;;;;;;;5011875;28;20026;-57
2021/08/21 10:03:48;;;;;;;2.30;1.33;;;;;;;;;;5011787;28;20037;-58
2021/08/21 10:06:15;;;;;;;2.63;1.38;;;;;;;;;;5013267;28;20026;-59
2021/08/21 10:08:41;;;;;;;2.35;1.25;;;;;;;;;;5007103;28;20022;-59
2021/08/21 10:11:07;;;;;;;2.05;1.20;;;;;;;;;;5009756;28;20046;-58
2021/08/21 10:13:33;;;;;;;8.50;1.50;;;;;;;;;;5008853;28;20056;-58
2021/08/21 10:16:03;;;;;;;2.63;1.10;;;;;;;;;;5010596;28;20061;-60
2021/08/21 10:18:29;;;;;;;2.13;1.30;;;;;;;;;;5006937;28;20053;-58
2021/08/21 10:20:55;;;;;;;1.85;0.90;;;;;;;;;;5024030;28;20117;-59
2021/08/21 10:23:28;;;;;;;1.95;1.20;;;;;;;;;;5011589;28;20030;-58
2021/08/21 10:25:56;;;;;;;2.10;1.25;;;;;;;;;;5008348;28;20486;-57
2021/08/21 10:28:23;;;;;;;2.35;0.90;;;;;;;;;;5007430;28;20065;-59
2021/08/21 10:30:49;;;;;;;2.45;1.30;;;;;;;;;;5012515;28;20026;-59
2021/08/21 10:33:16;;;;;;;2.03;1.20;;;;;;;;;;5011359;28;20068;-59
2021/08/21 10:35:47;;;;;;;2.00;1.27;;;;;;;;;;5011623;28;20041;-59
2021/08/21 10:38:35;;;;;;;2.53;0.80;;;;;;;;;;5010785;28;20096;-58
2021/08/21 10:41:01;;;;;;;2.55;1.50;;;;;;;;;;5010611;28;20395;-58
2021/08/21 10:43:43;;;;;;;3.15;1.60;;;;;;;;;;5007660;28;20052;-59
2021/08/21 10:46:10;;;;;;;2.03;1.10;;;;;;;;;;5007186;28;20025;-59
2021/08/21 10:48:36;;;;;;;1.83;1.13;;;;;;;;;;5006231;28;20061;-59
2021/08/21 10:51:05;;;;;;;1.80;1.00;;;;;;;;;;5007079;28;20065;-59
2021/08/21 10:53:32;;;;;;;3.13;1.42;;;;;;;;;;5005865;28;20037;-59
2021/08/21 10:55:59;;;;;;;2.05;1.00;;;;;;;;;;5011510;28;20049;-59
2021/08/21 10:58:26;;;;;;;1.77;0.90;;;;;;;;;;5009141;28;20037;-59
2021/08/21 11:00:56;;;;;;;2.17;1.23;;;;;;;;;;5012659;28;20187;-59
2021/08/21 11:03:25;;;;;;;2.40;1.42;;;;;;;;;;5003314;28;20061;-59
2021/08/21 11:05:56;;;;;;;1.35;0.90;;;;;;;;;;5010053;28;20018;-60
2021/08/21 11:08:24;;;;;;;2.50;0.90;;;;;;;;;;5003162;28;20589;-59
2021/08/21 11:11:18;;;;;;;2.38;0.90;;;;;;;;;;5012231;28;20103;-60
2021/08/21 11:14:05;;;;;;;2.05;1.30;;;;;;;;;;5005912;28;20041;-59
2021/08/21 11:16:47;;;;;;;2.25;1.08;;;;;;;;;;5005842;28;20155;-60
2021/08/21 11:19:13;;;;;;;2.38;1.15;;;;;;;;;;5006968;28;20033;-59
2021/08/21 11:21:40;;;;;;;1.50;1.02;;;;;;;;;;5009064;28;20030;-59
2021/08/21 11:24:25;;;;;;;2.75;1.00;;;;;;;;;;5009005;28;20049;-59
2021/08/21 11:26:52;;;;;;;1.67;0.90;;;;;;;;;;5007842;28;20026;-59
2021/08/21 11:29:18;;;;;;;0.88;0.73;;;;;;;;;;5009708;28;20048;-59
2021/08/21 11:31:56;;;;;;;1.88;1.00;;;;;;;;;;5012101;28;20026;-59
2021/08/21 11:34:22;;;;;;;1.33;0.80;;;;;;;;;;5010694;28;20025;-59
2021/08/21 11:36:48;;;;;;;2.03;1.10;;;;;;;;;;5010266;28;20064;-60
2021/08/21 11:39:14;;;;;;;1.70;0.85;;;;;;;;;;5010887;28;20540;-60
2021/08/21 11:41:40;;;;;;;1.20;0.60;;;;;;;;;;5011423;28;20030;-60
2021/08/21 11:44:07;;;;;;;1.05;0.70;;;;;;;;;;4998361;28;20125;-60
2021/08/21 11:46:33;;;;;;;1.17;0.75;;;;;;;;;;5009402;28;20104;-60
2021/08/21 11:49:08;;;;;;;1.60;0.75;;;;;;;;;;5009445;28;20573;-60
2021/08/21 11:51:38;;;;;;;1.52;0.80;;;;;;;;;;5008794;28;20026;-59
2021/08/21 11:54:07;;;;;;;2.88;0.80;;;;;;;;;;4996427;28;20470;-59
2021/08/21 11:56:33;;;;;;;1.42;0.70;;;;;;;;;;5007756;28;20363;-60
2021/08/21 11:59:09;;;;;;;1.35;0.85;;;;;;;;;;5011206;28;20029;-59
2021/08/21 12:01:37;;;;;;;1.45;0.60;;;;;;;;;;5011339;28;20030;-58
2021/08/21 12:06:34;;;;;;;3.60;0.88;;;;;;;;;;5006883;28;20046;-57
2021/08/21 12:09:13;;;;;;;1.42;0.95;;;;;;;;;;5010222;28;20674;-61
2021/08/21 12:11:39;;;;;;;0.95;0.68;;;;;;;;;;5008727;28;20041;-57
2021/08/21 12:14:06;;;;;;;1.25;0.60;;;;;;;;;;5012316;28;20057;-60
2021/08/21 12:16:33;;;;;;;1.67;0.82;;;;;;;;;;5005863;28;20121;-59
2021/08/21 12:18:59;;;;;;;2.25;0.70;;;;;;;;;;5009529;28;20377;-59
2021/08/21 12:21:25;;;;;;;0.63;0.50;;;;;;;;;;5010776;28;20025;-59
2021/08/21 12:23:52;;;;;;;0.95;0.57;;;;;;;;;;5012238;28;20041;-59
2021/08/21 12:26:32;;;;;;;0.98;0.60;;;;;;;;;;5009084;28;20141;-59
2021/08/21 12:28:58;;;;;;;1.23;0.55;;;;;;;;;;4998250;28;20482;-59
2021/08/21 12:31:33;;;;;;;1.38;0.60;;;;;;;;;;5007343;28;20076;-59
2021/08/21 12:33:59;;;;;;;1.45;0.75;;;;;;;;;;5003113;28;20439;-59
2021/08/21 12:36:25;;;;;;;1.58;0.70;;;;;;;;;;5003459;28;20104;-59
2021/08/21 12:39:01;;;;;;;1.52;0.70;;;;;;;;;;5011634;28;20026;-60
2021/08/21 12:41:27;;;;;;;0.75;0.38;;;;;;;;;;5011366;28;20053;-60
2021/08/21 12:44:03;;;;;;;2.78;0.60;;;;;;;;;;4996975;28;20061;-59
2021/08/21 12:46:29;;;;;;;0.43;0.43;;;;;;;;;;5003374;28;20030;-59
2021/08/21 12:49:04;;;;;;;0.98;0.60;;;;;;;;;;5002054;28;20027;-57
2021/08/21 12:51:34;;;;;;;1.10;0.50;;;;;;;;;;5008969;28;20470;-59
2021/08/21 12:54:07;;;;;;;0.70;0.50;;;;;;;;;;5008581;28;20034;-59
2021/08/21 12:56:33;;;;;;;2.40;1.00;;;;;;;;;;5009084;28;20062;-59
2021/08/21 12:59:06;;;;;;;2.08;0.60;;;;;;;;;;5011464;28;20048;-60
2021/08/21 13:01:32;;;;;;;1.52;0.57;;;;;;;;;;5006731;28;20049;-60
2021/08/21 13:04:24;;;;;;;0.80;0.50;;;;;;;;;;5007411;28;20022;-60
2021/08/21 13:06:59;;;;;;;1.60;0.60;;;;;;;;;;5008108;28;20107;-57
2021/08/21 13:09:25;;;;;;;1.67;0.60;;;;;;;;;;5009419;28;20061;-59
2021/08/21 13:11:50;;;;;;;1.38;0.68;;;;;;;;;;5005024;28;20421;-60
2021/08/21 13:14:16;;;;;;;0.98;0.50;;;;;;;;;;5007797;28;20386;-59
2021/08/21 13:16:46;;;;;;;0.90;0.60;;;;;;;;;;5011170;28;20038;-60
2021/08/21 13:19:12;;;;;;;2.55;0.50;;;;;;;;;;5009653;28;20038;-60
2021/08/21 13:21:37;;;;;;;1.08;0.55;;;;;;;;;;5011262;28;20113;-59
2021/08/21 13:24:03;;;;;;;1.52;0.60;;;;;;;;;;5004785;28;20092;-60
2021/08/21 13:26:34;;;;;;;0.65;0.50;;;;;;;;;;5007077;28;20101;-60
2021/08/21 13:29:00;;;;;;;1.02;0.60;;;;;;;;;;5001139;28;20050;-58
2021/08/21 13:31:26;;;;;;;1.52;0.38;;;;;;;;;;5003357;28;20660;-60
2021/08/21 13:33:52;;;;;;;0.95;0.45;;;;;;;;;;5011650;28;20038;-59
2021/08/21 13:36:18;;;;;;;0.68;0.43;;;;;;;;;;5010078;28;20442;-59
2021/08/21 13:38:44;;;;;;;1.67;0.60;;;;;;;;;;5007432;28;20383;-58
2021/08/21 13:41:10;;;;;;;0.82;0.40;;;;;;;;;;5006154;28;20076;-58
2021/08/21 13:43:36;;;;;;;0.80;0.50;;;;;;;;;;5007444;28;20498;-59
2021/08/21 13:46:03;;;;;;;1.42;0.40;;;;;;;;;;5014471;28;20037;-59
2021/08/21 13:48:30;;;;;;;1.85;0.80;;;;;;;;;;5011416;28;20026;-59
2021/08/21 13:50:56;;;;;;;0.95;0.40;;;;;;;;;;5013543;28;20017;-58
2021/08/21 13:53:22;;;;;;;0.60;0.38;;;;;;;;;;5007548;28;20044;-58
2021/08/21 13:55:48;;;;;;;2.17;0.75;;;;;;;;;;5005708;28;20034;-58
2021/08/21 13:58:14;;;;;;;1.27;0.63;;;;;;;;;;5009457;28;20037;-59
2021/08/21 14:00:40;;;;;;;1.35;0.50;;;;;;;;;;5009965;28;20029;-58
2021/08/21 14:03:06;;;;;;;2.05;0.32;;;;;;;;;;5004925;28;20038;-60
2021/08/21 14:05:34;;;;;;;2.45;0.50;;;;;;;;;;5008575;28;20395;-58
2021/08/21 14:08:00;;;;;;;3.38;0.68;;;;;;;;;;5012091;28;20029;-60
2021/08/21 14:10:26;;;;;;;1.30;0.40;;;;;;;;;;5012232;28;20501;-59
2021/08/21 14:12:52;;;;;;;0.88;0.60;;;;;;;;;;5013447;28;20045;-59
2021/08/21 14:15:18;;;;;;;0.35;0.28;;;;;;;;;;5009596;28;20088;-59
2021/08/21 14:17:44;;;;;;;0.73;0.40;;;;;;;;;;5001069;28;20049;-59
2021/08/21 14:20:11;;;;;;;1.80;0.82;;;;;;;;;;5013540;28;20034;-60
2021/08/21 14:22:37;;;;;;;2.22;0.60;;;;;;;;;;5012391;28;20044;-59
2021/08/21 14:25:04;;;;;;;1.25;0.60;;;;;;;;;;5009570;28;20113;-60
2021/08/21 14:27:30;;;;;;;1.02;0.43;;;;;;;;;;5011611;28;20109;-60
2021/08/21 14:29:56;;;;;;;1.33;0.50;;;;;;;;;;5010436;28;20105;-60
2021/08/21 14:32:22;;;;;;;0.55;0.30;;;;;;;;;;5010845;28;20025;-59
2021/08/21 14:34:48;;;;;;;0.85;0.50;;;;;;;;;;5010771;28;20483;-59
2021/08/21 14:37:14;;;;;;;0.77;0.30;;;;;;;;;;5003998;28;20026;-59
2021/08/21 14:39:40;;;;;;;0.52;0.30;;;;;;;;;;5005297;28;20080;-57
2021/08/21 14:42:06;;;;;;;0.45;0.28;;;;;;;;;;5011734;28;20034;-57
2021/08/21 14:44:32;;;;;;;0.73;0.50;;;;;;;;;;5009287;28;20079;-58
2021/08/21 14:46:58;;;;;;;1.00;0.40;;;;;;;;;;5012525;28;20030;-60